Time;durP1;ratioP1;P1;durP2;ratioP2;P2;SDS_P1;SDS_P2;PMS_P1;PMS_P2;Temp;Humidity;BMP_temperature;BMP_pressure;BME280_temperature;BME280_humidity;BME280_pressure;Samples;Min_cycle;Max_cycle;Signal;HPM_P1;HPM_P2
2023/04/10 00:04:35;;;;;;;8.30;6.40;;;8.90;91.30;;;;;;10427991;28;20256;-73
2023/04/10 00:09:36;;;;;;;8.13;6.53;;;8.80;91.40;;;;;;10427897;28;20227;-73
2023/04/10 00:14:37;;;;;;;8.13;7.07;;;8.80;91.60;;;;;;10424659;28;20224;-73
2023/04/10 00:19:37;;;;;;;8.77;7.47;;;8.80;91.90;;;;;;10427257;28;20592;-73
2023/04/10 00:24:38;;;;;;;9.97;7.50;;;8.60;92.30;;;;;;10429269;28;20211;-74
2023/04/10 00:29:38;;;;;;;10.97;8.53;;;8.40;92.80;;;;;;10422595;28;20228;-73
2023/04/10 00:34:39;;;;;;;11.87;8.53;;;8.20;93.30;;;;;;10421069;28;20853;-72
2023/04/10 00:39:40;;;;;;;8.23;6.63;;;8.10;93.90;;;;;;10435615;28;20689;-72
2023/04/10 00:44:43;;;;;;;7.13;6.43;;;8.00;94.50;;;;;;10425647;28;20823;-72
2023/04/10 00:49:44;;;;;;;8.10;7.10;;;7.90;95.10;;;;;;10422002;28;20224;-72
2023/04/10 00:54:45;;;;;;;8.33;7.33;;;7.90;95.70;;;;;;10423207;28;20219;-72
2023/04/10 00:59:47;;;;;;;8.80;7.10;;;7.80;96.20;;;;;;10418853;28;20219;-71
2023/04/10 01:04:48;;;;;;;7.87;6.77;;;7.70;96.70;;;;;;10422368;28;20230;-70
2023/04/10 01:09:52;;;;;;;8.30;7.37;;;7.70;97.20;;;;;;10417022;28;20734;-70
2023/04/10 01:15:14;;;;;;;8.83;7.07;;;7.50;97.90;;;;;;10418926;28;20282;-70
2023/04/10 01:20:28;;;;;;;8.97;7.50;;;7.40;98.80;;;;;;10415987;28;20447;-71
2023/04/10 01:25:40;;;;;;;9.03;7.27;;;7.40;99.80;;;;;;10425929;28;20284;-70
2023/04/10 01:30:42;;;;;;;10.00;8.00;;;7.30;99.90;;;;;;10424813;28;20212;-71
2023/04/10 01:35:49;;;;;;;8.83;7.63;;;7.30;99.90;;;;;;10427723;28;20576;-70
2023/04/10 01:40:52;;;;;;;8.77;7.53;;;7.20;99.90;;;;;;10424012;28;20236;-71
2023/04/10 01:45:53;;;;;;;9.07;7.93;;;7.10;99.90;;;;;;10419363;28;20246;-71
2023/04/10 01:50:55;;;;;;;9.60;7.80;;;7.10;99.90;;;;;;10419088;28;20212;-70
2023/04/10 01:55:56;;;;;;;9.97;8.30;;;7.00;99.90;;;;;;10417661;28;20635;-70
2023/04/10 02:00:57;;;;;;;9.97;8.03;;;7.00;99.90;;;;;;10419800;28;20216;-72
2023/04/10 02:06:15;;;;;;;11.07;7.87;;;7.00;99.90;;;;;;10413927;28;20229;-70
2023/04/10 02:11:41;;;;;;;8.80;7.50;;;7.20;99.90;;;;;;10420878;28;20321;-70
2023/04/10 02:16:42;;;;;;;9.47;7.30;;;7.20;99.90;;;;;;10430996;28;20221;-71
2023/04/10 02:21:43;;;;;;;7.77;6.97;;;7.30;99.90;;;;;;10434274;28;20215;-70
2023/04/10 02:26:48;;;;;;;8.37;7.10;;;7.40;99.90;;;;;;10428849;28;20607;-71
2023/04/10 02:31:49;;;;;;;9.80;7.43;;;7.50;99.90;;;;;;10434760;28;20219;-70
2023/04/10 02:36:49;;;;;;;8.53;7.00;;;7.50;99.90;;;;;;10422121;28;20592;-71
2023/04/10 02:41:50;;;;;;;9.03;7.43;;;7.50;99.90;;;;;;10429559;28;20224;-71
2023/04/10 02:46:51;;;;;;;10.17;8.33;;;7.40;99.90;;;;;;10427061;28;20649;-71
2023/04/10 02:51:51;;;;;;;8.63;7.37;;;7.50;99.90;;;;;;10424844;28;20702;-70
2023/04/10 02:56:52;;;;;;;9.53;8.00;;;7.50;99.90;;;;;;10427351;28;20251;-71
2023/04/10 03:01:52;;;;;;;9.53;7.63;;;7.60;99.90;;;;;;10427916;28;20223;-70
2023/04/10 03:06:53;;;;;;;11.67;8.03;;;7.60;99.90;;;;;;10426790;28;20224;-70
2023/04/10 03:11:54;;;;;;;8.17;6.87;;;7.50;99.90;;;;;;10434049;28;20628;-72
2023/04/10 03:16:54;;;;;;;8.03;6.33;;;7.30;99.90;;;;;;10425947;28;20227;-71
2023/04/10 03:21:55;;;;;;;8.33;7.40;;;7.30;99.90;;;;;;10429229;28;20212;-70
2023/04/10 03:26:55;;;;;;;8.80;7.87;;;7.20;99.90;;;;;;10434386;28;20300;-70
2023/04/10 03:31:56;;;;;;;9.10;7.87;;;7.10;99.90;;;;;;10426941;28;20215;-70
2023/04/10 03:36:57;;;;;;;9.63;7.93;;;7.00;99.90;;;;;;10434087;28;20886;-69
2023/04/10 03:41:57;;;;;;;10.00;7.47;;;7.00;99.90;;;;;;10424939;28;20236;-70
2023/04/10 03:46:58;;;;;;;9.40;7.93;;;7.10;99.90;;;;;;10432759;28;20694;-70
2023/04/10 03:51:58;;;;;;;9.33;7.50;;;7.20;99.90;;;;;;10423278;28;20219;-71
2023/04/10 03:57:00;;;;;;;9.20;7.83;;;7.10;99.90;;;;;;10425047;28;20228;-70
2023/04/10 04:02:00;;;;;;;8.67;7.70;;;7.10;99.90;;;;;;10419133;28;20238;-71
2023/04/10 04:07:01;;;;;;;8.93;7.67;;;7.00;99.90;;;;;;10430699;28;20228;-70
2023/04/10 04:12:02;;;;;;;8.87;7.77;;;7.00;99.90;;;;;;10424351;28;20277;-71
2023/04/10 04:17:02;;;;;;;9.07;7.53;;;6.90;99.90;;;;;;10430403;28;20255;-71
2023/04/10 04:22:03;;;;;;;8.30;7.40;;;7.00;99.90;;;;;;10422954;28;20221;-71
2023/04/10 04:27:04;;;;;;;10.17;8.50;;;7.00;99.90;;;;;;10427826;28;20230;-70
2023/04/10 04:32:05;;;;;;;9.97;8.17;;;7.00;99.90;;;;;;10422506;28;20216;-72
2023/04/10 04:37:05;;;;;;;9.13;8.10;;;7.00;99.90;;;;;;10428882;28;20215;-73
2023/04/10 04:42:06;;;;;;;9.37;8.30;;;6.90;99.90;;;;;;10431331;28;20315;-73
2023/04/10 04:47:07;;;;;;;9.33;7.77;;;6.90;99.90;;;;;;10419270;28;20588;-72
2023/04/10 04:52:08;;;;;;;9.67;8.07;;;6.90;99.90;;;;;;10430034;28;20281;-72
2023/04/10 04:57:08;;;;;;;10.40;7.97;;;6.90;99.90;;;;;;10423994;28;20219;-74
2023/04/10 05:02:09;;;;;;;9.93;8.40;;;6.90;99.90;;;;;;10430232;28;20894;-73
2023/04/10 05:07:10;;;;;;;11.20;7.90;;;6.90;99.90;;;;;;10416225;28;20223;-72
2023/04/10 05:12:10;;;;;;;11.73;9.20;;;7.00;99.90;;;;;;10422705;28;20263;-72
2023/04/10 05:17:11;;;;;;;10.90;8.07;;;7.10;99.90;;;;;;10426472;28;20216;-73
2023/04/10 05:22:11;;;;;;;10.47;8.67;;;7.20;99.90;;;;;;10423991;28;20224;-73
2023/04/10 05:27:12;;;;;;;12.67;8.77;;;7.30;99.90;;;;;;10419537;28;20243;-75
2023/04/10 05:32:16;;;;;;;8.33;7.43;;;7.40;99.90;;;;;;10427700;28;20263;-73
2023/04/10 05:37:16;;;;;;;11.67;8.53;;;7.60;99.90;;;;;;10424129;28;20706;-72
2023/04/10 05:42:17;;;;;;;8.93;7.90;;;7.90;99.90;;;;;;10424741;28;20220;-72
2023/04/10 05:47:17;;;;;;;10.57;8.20;;;8.10;99.90;;;;;;10429548;28;20707;-73
2023/04/10 05:52:18;;;;;;;9.87;8.53;;;8.20;99.90;;;;;;10438123;28;20224;-72
2023/04/10 05:57:18;;;;;;;9.70;7.90;;;8.40;99.90;;;;;;10426445;28;20222;-72
2023/04/10 06:02:19;;;;;;;8.97;7.80;;;8.90;99.90;;;;;;10431783;28;20262;-74
2023/04/10 06:07:19;;;;;;;9.20;8.20;;;9.50;99.90;;;;;;10434447;28;20294;-73
2023/04/10 06:12:20;;;;;;;9.83;7.90;;;10.10;99.90;;;;;;10431734;28;20217;-74
2023/04/10 06:17:20;;;;;;;8.90;7.33;;;11.00;99.90;;;;;;10427213;28;20319;-73
2023/04/10 06:22:21;;;;;;;8.53;7.10;;;12.20;99.90;;;;;;10434092;28;20274;-74
2023/04/10 06:27:21;;;;;;;8.97;7.40;;;12.20;99.90;;;;;;10430331;28;20297;-74
2023/04/10 06:32:22;;;;;;;8.23;7.07;;;11.40;99.90;;;;;;10432567;28;20209;-72
2023/04/10 06:37:28;;;;;;;8.80;7.73;;;11.20;99.90;;;;;;10428363;28;20299;-73
2023/04/10 06:42:29;;;;;;;8.47;7.30;;;10.90;99.90;;;;;;10426541;28;20217;-73
2023/04/10 06:47:30;;;;;;;9.03;7.50;;;10.70;99.90;;;;;;10431812;28;20616;-73
2023/04/10 06:52:31;;;;;;;8.10;7.30;;;10.60;99.90;;;;;;10431571;28;20255;-73
2023/04/10 06:57:32;;;;;;;8.83;7.60;;;10.60;99.90;;;;;;10429536;28;20244;-74
2023/04/10 07:02:32;;;;;;;8.40;7.50;;;10.60;99.90;;;;;;10422429;28;20307;-74
2023/04/10 07:07:33;;;;;;;9.90;7.77;;;10.80;99.90;;;;;;10428895;28;20220;-74
2023/04/10 07:12:34;;;;;;;8.70;7.80;;;11.10;99.90;;;;;;10425103;28;20632;-73
2023/04/10 07:17:34;;;;;;;9.73;7.83;;;11.10;99.90;;;;;;10434332;28;20224;-74
2023/04/10 07:22:35;;;;;;;8.53;7.63;;;11.20;99.90;;;;;;10427776;28;20316;-74
2023/04/10 07:27:35;;;;;;;8.13;7.27;;;11.50;99.90;;;;;;10426789;28;20219;-73
2023/04/10 07:32:38;;;;;;;8.40;7.20;;;11.90;99.90;;;;;;10425069;28;20217;-73
2023/04/10 07:37:39;;;;;;;9.53;7.77;;;12.20;99.90;;;;;;10430645;28;20216;-73
2023/04/10 07:42:39;;;;;;;8.00;7.03;;;14.30;98.70;;;;;;10428072;28;20221;-73
2023/04/10 07:47:40;;;;;;;7.90;7.10;;;15.90;93.50;;;;;;10430142;28;20689;-73
2023/04/10 07:52:41;;;;;;;7.63;6.73;;;17.60;87.70;;;;;;10427822;28;20246;-73
2023/04/10 07:57:41;;;;;;;7.50;6.80;;;19.00;76.20;;;;;;10429317;28;20227;-74
2023/04/10 08:02:42;;;;;;;7.17;6.47;;;20.00;69.70;;;;;;10426515;28;20238;-72
2023/04/10 08:07:42;;;;;;;7.60;6.90;;;21.20;62.50;;;;;;10422444;28;20228;-72
2023/04/10 08:12:43;;;;;;;7.77;7.07;;;21.10;58.50;;;;;;10426208;28;20225;-72
2023/04/10 08:17:44;;;;;;;7.73;7.00;;;21.60;57.30;;;;;;10430212;28;20224;-73
2023/04/10 08:22:44;;;;;;;7.23;6.53;;;20.60;57.90;;;;;;10419597;28;20236;-73
2023/04/10 08:27:45;;;;;;;7.40;6.70;;;21.50;55.30;;;;;;10425825;28;20720;-74
2023/04/10 08:32:46;;;;;;;7.53;6.83;;;22.00;55.20;;;;;;10429250;28;20240;-74
2023/04/10 08:37:46;;;;;;;7.70;7.00;;;22.80;53.00;;;;;;10423938;28;20313;-73
2023/04/10 08:42:47;;;;;;;7.13;6.53;;;23.10;52.90;;;;;;10429259;28;20218;-74
2023/04/10 08:47:51;;;;;;;7.33;6.73;;;22.30;51.90;;;;;;10416841;28;20227;-73
2023/04/10 08:52:54;;;;;;;6.70;6.10;;;23.30;50.60;;;;;;10419990;28;20240;-73
2023/04/10 08:57:55;;;;;;;4.60;4.30;;;24.40;48.80;;;;;;10430277;28;20225;-73
2023/04/10 09:02:57;;;;;;;4.90;4.50;;;25.70;44.00;;;;;;10429870;28;20302;-73
2023/04/10 09:07:57;;;;;;;3.33;3.13;;;26.90;41.80;;;;;;10418412;28;20318;-73
2023/04/10 09:12:58;;;;;;;3.77;2.90;;;28.50;34.30;;;;;;10429107;28;20856;-73
2023/04/10 09:18:02;;;;;;;3.17;2.93;;;28.30;32.90;;;;;;10419169;28;20593;-74
2023/04/10 09:23:20;;;;;;;3.07;2.87;;;28.30;31.90;;;;;;10416183;28;20867;-73
2023/04/10 09:28:20;;;;;;;3.13;2.93;;;28.20;32.40;;;;;;10431177;28;20227;-73
2023/04/10 09:33:31;;;;;;;3.07;2.87;;;28.30;32.50;;;;;;10420215;28;20638;-75
2023/04/10 09:38:33;;;;;;;2.70;2.50;;;29.20;31.20;;;;;;10434122;28;20293;-74
2023/04/10 09:43:34;;;;;;;2.73;2.60;;;29.30;29.90;;;;;;10434187;28;20230;-74
2023/04/10 09:48:35;;;;;;;2.43;2.33;;;28.10;32.20;;;;;;10433660;28;20228;-74
2023/04/10 09:53:49;;;;;;;2.50;2.40;;;27.10;31.20;;;;;;10432862;28;20599;-73
2023/04/10 09:58:50;;;;;;;2.60;2.40;;;25.80;33.50;;;;;;10430203;28;20228;-73
2023/04/10 10:03:53;;;;;;;2.20;2.00;;;25.90;33.10;;;;;;10423848;28;20219;-73
2023/04/10 10:08:54;;;;;;;2.07;1.97;;;26.70;32.50;;;;;;10436275;28;20239;-74
2023/04/10 10:13:56;;;;;;;2.50;2.30;;;27.00;30.40;;;;;;10428673;28;20698;-75
2023/04/10 10:19:05;;;;;;;2.27;2.17;;;26.40;32.00;;;;;;10432547;28;20314;-73
2023/04/10 10:24:07;;;;;;;2.33;2.20;;;28.10;30.90;;;;;;10412670;28;20617;-73
2023/04/10 10:29:12;;;;;;;2.40;2.30;;;31.10;27.30;;;;;;10423710;28;20273;-74
2023/04/10 10:34:15;;;;;;;2.13;2.03;;;31.20;28.00;;;;;;10441240;28;20270;-73
2023/04/10 10:39:44;;;;;;;2.60;2.40;;;32.40;26.10;;;;;;10428405;28;20307;-74
2023/04/10 10:44:51;;;;;;;2.13;2.03;;;32.90;27.10;;;;;;10428929;28;20353;-74
2023/04/10 10:50:00;;;;;;;2.40;1.97;;;33.40;25.10;;;;;;10433306;28;20232;-74
2023/04/10 10:55:20;;;;;;;2.50;2.40;;;31.20;25.20;;;;;;10424249;28;20223;-73
2023/04/10 11:00:23;;;;;;;2.47;2.37;;;32.00;27.30;;;;;;10413068;28;20219;-73
2023/04/10 11:06:01;;;;;;;2.77;2.40;;;34.20;25.80;;;;;;10428916;28;20215;-74
2023/04/10 11:11:06;;;;;;;2.50;2.40;;;35.20;25.10;;;;;;10422959;28;20220;-74
2023/04/10 11:16:11;;;;;;;2.80;2.60;;;32.40;25.20;;;;;;10402459;28;20717;-75
2023/04/10 11:21:19;;;;;;;2.77;2.57;;;28.50;29.50;;;;;;10431428;28;20230;-73
2023/04/10 11:26:40;;;;;;;3.67;2.50;;;26.30;31.70;;;;;;10425365;28;20284;-74
2023/04/10 11:31:43;;;;;;;2.93;2.63;;;24.70;33.20;;;;;;10434663;28;20275;-74
2023/04/10 11:36:44;;;;;;;2.60;2.40;;;24.10;35.10;;;;;;10426973;28;20280;-74
2023/04/10 11:41:46;;;;;;;2.70;2.50;;;24.00;35.60;;;;;;10424167;28;20687;-73
2023/04/10 11:46:49;;;;;;;2.33;2.20;;;23.80;35.50;;;;;;10432279;28;20248;-74
2023/04/10 11:51:51;;;;;;;3.60;2.30;;;23.70;35.30;;;;;;10427412;28;20232;-73
2023/04/10 11:56:57;;;;;;;2.03;1.93;;;23.80;33.60;;;;;;10422241;28;20390;-74
2023/04/10 12:02:08;;;;;;;2.73;2.53;;;23.80;33.90;;;;;;10423799;28;20323;-75
2023/04/10 12:07:09;;;;;;;2.73;2.53;;;23.50;33.90;;;;;;10409449;28;20221;-73
2023/04/10 12:12:09;;;;;;;3.57;2.73;;;23.50;33.30;;;;;;10429999;28;20690;-73
2023/04/10 12:17:11;;;;;;;4.43;2.70;;;23.60;36.00;;;;;;10425013;28;20214;-73
2023/04/10 12:22:12;;;;;;;2.80;2.60;;;24.00;35.70;;;;;;10418103;28;20223;-73
2023/04/10 12:27:25;;;;;;;2.63;2.43;;;24.20;37.40;;;;;;10425159;28;20234;-74
2023/04/10 12:32:29;;;;;;;3.07;2.87;;;24.30;36.30;;;;;;10426968;28;20591;-74
2023/04/10 12:37:50;;;;;;;2.90;2.70;;;24.20;36.30;;;;;;10427867;28;20224;-73
2023/04/10 12:42:50;;;;;;;4.33;2.83;;;23.90;36.60;;;;;;10421946;28;20682;-74
2023/04/10 12:47:52;;;;;;;3.53;3.07;;;23.70;37.10;;;;;;10423044;28;20216;-73
2023/04/10 12:53:06;;;;;;;3.00;2.70;;;23.40;38.10;;;;;;10420553;28;20703;-73
2023/04/10 12:58:18;;;;;;;4.80;2.90;;;23.00;38.00;;;;;;10416547;28;20224;-73
2023/04/10 13:03:20;;;;;;;3.53;2.80;;;22.90;39.00;;;;;;10429080;28;20223;-73
2023/04/10 13:08:21;;;;;;;3.03;2.83;;;22.80;39.30;;;;;;10419369;28;20230;-73
2023/04/10 13:13:22;;;;;;;3.40;3.07;;;22.70;38.80;;;;;;10424127;28;20238;-73
2023/04/10 13:18:22;;;;;;;2.70;2.50;;;22.60;39.70;;;;;;10434624;28;20300;-73
2023/04/10 13:23:23;;;;;;;3.10;2.90;;;22.50;38.90;;;;;;10421229;28;20203;-73
2023/04/10 13:28:24;;;;;;;3.27;2.97;;;22.60;39.70;;;;;;10401324;28;20919;-74
2023/04/10 13:33:25;;;;;;;2.93;2.73;;;22.70;39.50;;;;;;10418136;28;20270;-73
2023/04/10 13:38:26;;;;;;;3.23;3.03;;;22.50;39.20;;;;;;10418942;28;20257;-73
2023/04/10 13:43:27;;;;;;;3.70;2.67;;;22.30;40.30;;;;;;10420285;28;20665;-74
2023/04/10 13:48:27;;;;;;;3.03;2.77;;;22.20;40.00;;;;;;10425839;28;20228;-73
2023/04/10 13:53:31;;;;;;;2.70;2.50;;;22.20;39.80;;;;;;10419300;28;20215;-73
2023/04/10 13:58:33;;;;;;;2.90;2.70;;;22.20;39.10;;;;;;10425063;28;20689;-73
2023/04/10 14:03:33;;;;;;;2.70;2.50;;;22.00;39.30;;;;;;10425823;28;20378;-73
2023/04/10 14:08:34;;;;;;;2.67;2.47;;;22.10;39.10;;;;;;10430999;28;20234;-73
2023/04/10 14:13:34;;;;;;;2.30;2.10;;;22.30;39.50;;;;;;10428848;28;20259;-73
2023/04/10 14:18:36;;;;;;;2.83;2.40;;;22.10;38.80;;;;;;10421256;28;20224;-74
2023/04/10 14:23:36;;;;;;;2.60;2.40;;;22.00;38.60;;;;;;10432400;28;20232;-73
2023/04/10 14:28:37;;;;;;;4.33;2.20;;;21.80;38.80;;;;;;10436258;28;20220;-74
2023/04/10 14:33:37;;;;;;;2.73;2.27;;;21.80;38.10;;;;;;10432271;28;20225;-74
2023/04/10 14:38:38;;;;;;;1.87;1.77;;;21.40;37.70;;;;;;10428355;28;20223;-73
2023/04/10 14:43:39;;;;;;;1.93;1.80;;;21.20;38.30;;;;;;10428162;28;20213;-74
2023/04/10 14:48:40;;;;;;;2.00;1.90;;;21.00;37.50;;;;;;10427137;28;20269;-73
2023/04/10 14:53:41;;;;;;;2.30;2.10;;;20.80;38.00;;;;;;10415477;28;20861;-73
2023/04/10 14:58:42;;;;;;;2.03;1.83;;;20.60;38.50;;;;;;10429178;28;20224;-74
2023/04/10 15:03:46;;;;;;;2.37;1.73;;;20.30;38.50;;;;;;10432514;28;20239;-72
2023/04/10 15:08:47;;;;;;;2.20;1.97;;;20.20;38.80;;;;;;10426709;28;20236;-73
2023/04/10 15:13:48;;;;;;;2.03;1.90;;;20.20;40.50;;;;;;10431686;28;20658;-73
2023/04/10 15:18:48;;;;;;;1.90;1.80;;;20.30;38.80;;;;;;10428329;28;20303;-74
2023/04/10 15:23:49;;;;;;;2.00;1.90;;;20.30;39.50;;;;;;10429232;28;20289;-74
2023/04/10 15:28:51;;;;;;;2.00;1.90;;;20.30;39.90;;;;;;10424152;28;20228;-73
2023/04/10 15:33:51;;;;;;;2.20;1.80;;;20.30;39.20;;;;;;10428071;28;20227;-74
2023/04/10 15:38:52;;;;;;;2.40;2.20;;;20.30;39.70;;;;;;10423957;28;20215;-74
2023/04/10 15:43:52;;;;;;;2.43;1.70;;;20.30;39.20;;;;;;10429918;28;20285;-74
2023/04/10 15:48:53;;;;;;;2.00;1.90;;;20.20;39.50;;;;;;10422007;28;20228;-73
2023/04/10 15:53:54;;;;;;;1.80;1.70;;;20.10;39.50;;;;;;10430972;28;20314;-73
2023/04/10 15:58:54;;;;;;;1.60;1.50;;;20.10;39.60;;;;;;10425002;28;20225;-73
2023/04/10 16:03:55;;;;;;;2.03;1.80;;;20.10;39.20;;;;;;10428095;28;20803;-73
2023/04/10 16:08:55;;;;;;;2.47;1.90;;;19.90;39.50;;;;;;10424435;28;20225;-74
2023/04/10 16:13:56;;;;;;;2.10;1.90;;;19.90;40.40;;;;;;10431864;28;20223;-74
2023/04/10 16:18:56;;;;;;;2.00;1.80;;;19.70;40.40;;;;;;10424820;28;20219;-73
2023/04/10 16:23:57;;;;;;;1.70;1.60;;;19.40;40.60;;;;;;10424641;28;20212;-73
2023/04/10 16:28:58;;;;;;;2.63;1.53;;;19.20;41.20;;;;;;10429104;28;20226;-73
2023/04/10 16:34:00;;;;;;;2.63;2.40;;;18.90;42.30;;;;;;10423588;28;20232;-72
2023/04/10 16:39:00;;;;;;;3.23;2.33;;;18.80;46.40;;;;;;10430788;28;20310;-73
2023/04/10 16:44:01;;;;;;;2.53;2.33;;;18.60;49.10;;;;;;10405302;28;20237;-73
2023/04/10 16:49:01;;;;;;;2.47;2.27;;;18.50;49.90;;;;;;10418939;28;20593;-73
2023/04/10 16:54:02;;;;;;;2.40;2.20;;;18.40;50.20;;;;;;10431244;28;20245;-73
2023/04/10 16:59:03;;;;;;;3.40;2.57;;;18.30;50.60;;;;;;10414619;28;20274;-74
2023/04/10 17:04:04;;;;;;;2.30;2.10;;;18.20;50.60;;;;;;10431378;28;20230;-74
2023/04/10 17:09:04;;;;;;;2.87;2.67;;;18.20;51.00;;;;;;10422628;28;20228;-74
2023/04/10 17:14:06;;;;;;;2.23;2.10;;;18.30;51.10;;;;;;10430684;28;20701;-73
2023/04/10 17:19:06;;;;;;;4.93;2.50;;;18.10;51.40;;;;;;10421473;28;20220;-72
2023/04/10 17:24:07;;;;;;;4.60;2.67;;;18.00;52.20;;;;;;10422226;28;20216;-73
2023/04/10 17:29:07;;;;;;;2.80;2.60;;;17.80;52.70;;;;;;10420800;28;20617;-73
2023/04/10 17:34:08;;;;;;;3.07;2.10;;;17.60;53.10;;;;;;10430038;28;20313;-73
2023/04/10 17:39:09;;;;;;;5.23;3.80;;;17.50;53.60;;;;;;10421969;28;20214;-73
2023/04/10 17:44:10;;;;;;;14.27;9.70;;;17.30;54.00;;;;;;10420670;28;20320;-74
2023/04/10 17:49:10;;;;;;;8.27;5.87;;;17.20;54.10;;;;;;10429176;28;20234;-72
2023/04/10 17:54:11;;;;;;;9.93;6.67;;;16.90;54.70;;;;;;10418981;28;20234;-73
2023/04/10 17:59:12;;;;;;;11.27;6.90;;;16.70;54.90;;;;;;10427235;28;20229;-71
2023/04/10 18:04:13;;;;;;;4.97;3.60;;;16.60;55.60;;;;;;10416048;28;20246;-72
2023/04/10 18:09:14;;;;;;;4.97;3.13;;;16.40;55.30;;;;;;10428133;28;20824;-70
2023/04/10 18:14:14;;;;;;;2.80;2.60;;;16.30;55.70;;;;;;10430225;28;20218;-70
2023/04/10 18:19:15;;;;;;;3.97;2.47;;;16.30;56.60;;;;;;10427563;28;20261;-70
2023/04/10 18:24:15;;;;;;;3.30;2.00;;;16.20;56.90;;;;;;10431047;28;20231;-72
2023/04/10 18:29:16;;;;;;;3.87;2.30;;;16.20;56.80;;;;;;10429584;28;20597;-70
2023/04/10 18:34:20;;;;;;;4.53;3.00;;;16.20;57.40;;;;;;10429309;28;20218;-73
2023/04/10 18:39:21;;;;;;;3.17;2.40;;;16.10;57.50;;;;;;10434589;28;20357;-74
2023/04/10 18:44:21;;;;;;;2.43;2.23;;;16.10;57.50;;;;;;10429010;28;20582;-75
2023/04/10 18:49:22;;;;;;;4.33;2.50;;;16.10;57.80;;;;;;10427412;28;20236;-72
2023/04/10 18:54:25;;;;;;;2.90;2.27;;;16.00;57.80;;;;;;10417155;28;20225;-73
2023/04/10 18:59:27;;;;;;;2.20;2.00;;;16.00;58.00;;;;;;10421787;28;20211;-77
2023/04/10 19:04:27;;;;;;;3.43;2.37;;;16.10;57.90;;;;;;10431070;28;20879;-74
2023/04/10 19:09:28;;;;;;;2.33;2.13;;;16.00;58.20;;;;;;10432741;28;20331;-75
2023/04/10 19:14:29;;;;;;;2.67;2.20;;;16.00;58.20;;;;;;10427797;28;20632;-76
2023/04/10 19:19:29;;;;;;;2.80;2.60;;;16.00;58.20;;;;;;10431972;28;20235;-75
2023/04/10 19:24:33;;;;;;;3.10;2.63;;;16.00;58.40;;;;;;10424460;28;20219;-75
2023/04/10 19:29:33;;;;;;;2.93;2.57;;;16.00;58.90;;;;;;10429185;28;20282;-74
2023/04/10 19:34:34;;;;;;;2.47;2.27;;;16.00;59.10;;;;;;10431023;28;20263;-75
2023/04/10 19:39:35;;;;;;;2.67;2.47;;;15.90;59.80;;;;;;10428379;28;20575;-75
2023/04/10 19:44:36;;;;;;;5.87;2.40;;;15.90;59.80;;;;;;10404589;28;20214;-71
2023/04/10 19:49:36;;;;;;;4.07;2.40;;;15.80;60.00;;;;;;10424795;28;20587;-68
2023/04/10 19:54:37;;;;;;;3.30;2.30;;;15.80;60.50;;;;;;10432204;28;20220;-71
2023/04/10 19:59:40;;;;;;;2.37;2.17;;;15.80;61.30;;;;;;10412645;28;20299;-68
2023/04/10 20:04:41;;;;;;;3.20;2.40;;;15.80;61.60;;;;;;10409584;28;20216;-69
2023/04/10 20:09:43;;;;;;;2.30;2.10;;;15.70;62.60;;;;;;10409106;28;20591;-68
2023/04/10 20:14:43;;;;;;;2.30;2.10;;;15.60;63.00;;;;;;10426158;28;20791;-69
2023/04/10 20:19:44;;;;;;;2.47;2.20;;;15.60;62.50;;;;;;10413234;28;20310;-68
2023/04/10 20:24:45;;;;;;;3.40;2.30;;;15.60;63.30;;;;;;10419959;28;20235;-72
2023/04/10 20:29:46;;;;;;;2.83;2.30;;;15.60;63.80;;;;;;10429078;28;20301;-71
2023/04/10 20:34:46;;;;;;;4.47;2.60;;;15.60;64.40;;;;;;10421560;28;20267;-71
2023/04/10 20:39:47;;;;;;;2.83;2.40;;;15.60;65.90;;;;;;10416134;28;20330;-71
2023/04/10 20:44:48;;;;;;;2.80;2.60;;;15.50;68.70;;;;;;10416789;28;20268;-69
2023/04/10 20:49:49;;;;;;;3.03;2.43;;;15.50;68.60;;;;;;10424821;28;20296;-69
2023/04/10 20:54:50;;;;;;;5.23;2.47;;;15.50;69.00;;;;;;10428340;28;20218;-70
2023/04/10 20:59:51;;;;;;;2.20;2.00;;;15.40;68.80;;;;;;10423831;28;20216;-69
2023/04/10 21:04:52;;;;;;;3.13;2.50;;;15.40;68.90;;;;;;10408361;28;20224;-68
2023/04/10 21:09:52;;;;;;;2.60;2.40;;;15.40;68.90;;;;;;10430185;28;20225;-69
2023/04/10 21:14:53;;;;;;;2.87;2.23;;;15.40;69.40;;;;;;10423260;28;20219;-69
2023/04/10 21:19:53;;;;;;;2.83;2.50;;;15.40;69.60;;;;;;10424690;28;20279;-69
2023/04/10 21:24:54;;;;;;;4.33;2.50;;;15.40;69.90;;;;;;10405920;28;20310;-68
2023/04/10 21:29:54;;;;;;;2.73;2.30;;;15.40;70.30;;;;;;10426460;28;20280;-69
2023/04/10 21:34:55;;;;;;;2.70;2.40;;;15.40;70.80;;;;;;10427219;28;20226;-69
2023/04/10 21:39:56;;;;;;;3.10;2.60;;;15.40;71.40;;;;;;10427940;28;20256;-69
2023/04/10 21:44:59;;;;;;;2.93;2.50;;;15.30;71.90;;;;;;10406934;28;20591;-71
2023/04/10 21:49:59;;;;;;;3.07;2.57;;;15.30;72.20;;;;;;10430475;28;20599;-69
2023/04/10 21:55:00;;;;;;;3.00;2.57;;;15.20;72.80;;;;;;10429395;28;20305;-69
2023/04/10 22:00:01;;;;;;;2.30;2.10;;;15.20;73.40;;;;;;10422746;28;20273;-70
2023/04/10 22:05:02;;;;;;;4.77;2.37;;;15.10;74.00;;;;;;10421010;28;20230;-68
2023/04/10 22:10:02;;;;;;;2.67;2.20;;;15.10;74.50;;;;;;10420035;28;20225;-70
2023/04/10 22:15:07;;;;;;;4.80;2.30;;;15.10;75.00;;;;;;10437627;28;20230;-70
2023/04/10 22:20:08;;;;;;;2.47;2.27;;;15.10;75.80;;;;;;10426806;28;20240;-70
2023/04/10 22:25:08;;;;;;;2.03;1.83;;;15.00;76.30;;;;;;10408313;28;20542;-69
2023/04/10 22:30:09;;;;;;;4.37;1.90;;;15.00;78.20;;;;;;10431170;28;20228;-67
2023/04/10 22:35:10;;;;;;;5.00;1.90;;;15.00;78.70;;;;;;10428839;28;20178;-68
2023/04/10 22:40:10;;;;;;;3.57;2.47;;;15.00;81.50;;;;;;10428207;28;20195;-69
2023/04/10 22:45:12;;;;;;;5.57;2.60;;;14.80;93.60;;;;;;10428130;28;20191;-68
2023/04/10 22:50:12;;;;;;;5.07;2.40;;;14.10;99.90;;;;;;10423778;28;20220;-67
2023/04/10 22:55:14;;;;;;;5.40;3.07;;;13.50;99.90;;;;;;10434427;28;20215;-68
2023/04/10 23:00:15;;;;;;;6.70;3.63;;;13.00;99.90;;;;;;10429442;28;20195;-67
2023/04/10 23:05:15;;;;;;;6.00;3.90;;;12.60;99.90;;;;;;10441864;28;20682;-67
2023/04/10 23:10:16;;;;;;;5.33;3.60;;;12.40;99.90;;;;;;10421201;28;20299;-69
2023/04/10 23:15:17;;;;;;;6.70;4.03;;;12.30;99.90;;;;;;10435014;28;20570;-70
2023/04/10 23:20:17;;;;;;;5.23;3.97;;;12.30;99.90;;;;;;10418300;28;20600;-68
2023/04/10 23:25:18;;;;;;;7.17;3.53;;;12.20;99.90;;;;;;10433717;28;20280;-68
2023/04/10 23:30:19;;;;;;;6.53;3.83;;;12.20;99.90;;;;;;10411329;28;20208;-71
2023/04/10 23:35:19;;;;;;;6.10;3.77;;;12.20;99.90;;;;;;10428780;28;20185;-69
2023/04/10 23:40:20;;;;;;;3.70;3.00;;;12.20;99.90;;;;;;10428887;28;20180;-68
2023/04/10 23:45:21;;;;;;;3.23;2.60;;;12.20;99.90;;;;;;10420911;28;20192;-68
2023/04/10 23:50:21;;;;;;;3.80;2.70;;;12.40;99.90;;;;;;10415518;28;20219;-68
2023/04/10 23:55:22;;;;;;;4.67;2.50;;;12.50;99.90;;;;;;10434207;28;20184;-69
